Aérodrome :
LOGIN :

S'inscrire | Disclaimer

   EN    FR    IT 

 










Légende :    VFR   VFR Marginal   IFR   IFR Intensif   IFR Très Intensif
Visi : 
Plafond : 
>= 8 km
>= 3000ft
5 à 8 km
1000 à 3000 ft
1500m à 5 km
500 à 1000 ft
800 à 1500m
200 à 500 ft
< 800m
< 200 ft
Symboles :   Orages  Brouillard  Fortes neiges  Fortes précipitations  Vent > 20 kt
SIGMETs :   Divers  Orages  Givrage  Turbulence  Onde Orograph.  Cendres Volcan.







- Altitude de l'aérodrome : 46 ft
- Code IATA : SNN


EINN - Shannon

DERNIER METAR :
  • 270400Z 30006KT 9999 -RA FEW003 BKN006 BKN010 14/13 Q1010 BECMG SCT006

METARs EXPIRÉS :
  • 270330Z 30006KT 9999 -RA FEW003 BKN006 BKN015 14/13 Q1009 BECMG SCT006
  • 270300Z 30004KT 8000 -RA FEW003 BKN006 BKN010 14/13 Q1010 BECMG SCT006
  • 270230Z 23005KT 8000 -RA FEW003 OVC006 14/13 Q1010 BECMG SCT006
  • 270200Z 28005KT 9999 -RA FEW003 BKN006 BKN050 14/13 Q1010 BECMG SCT006
  • 270130Z 30004KT 8000 -RA FEW003 BKN006 BKN030 14/13 Q1010 RERA NOSIG

TAF TAF EINN
Valide du 27 à 00h jusqu'au 28 à 00h UTC


262300Z 2700/2724 25005KT 9999 FEW007 BKN014
TEMPO 2700/2707 5000 RA BKN007
BECMG 2703/2705 29010KT
BECMG 2710/2713 FEW014 BKN020
Pas de NOTAMs connus pour ce terrain.



MET'MAP, la Météo Aéronautique d'un coup d'oeil ! - Copyright ORBIFLY Décembre 2007 - Disclaimer

ORBIFLY MET'MAP TEAM :

Programmation & Développement : Alexandra Zaïnal
Conception & Développement : Baudouin d'Aumeries
Co-Programmation & Développement : Marc-Olivier Méhu
Soutien technique & logistique : Manuel Goepfert

Contact : metmap@orbifly.com




SOURCES & CREDITS :

   NOAA